createdAt,value
2023-01-19T00:00:51.753Z,99.90
2023-01-19T00:03:18.826Z,99.90
2023-01-19T00:05:46.094Z,99.90
2023-01-19T00:08:16.123Z,99.90
2023-01-19T00:10:44.988Z,99.90
2023-01-19T00:13:12.078Z,99.90
2023-01-19T00:15:39.162Z,99.90
2023-01-19T00:18:06.662Z,99.90
2023-01-19T00:20:35.646Z,99.90
2023-01-19T00:23:04.629Z,99.90
2023-01-19T00:25:31.696Z,99.90
2023-01-19T00:28:00.630Z,99.90
2023-01-19T00:30:28.380Z,99.90
2023-01-19T00:32:55.702Z,99.90
2023-01-19T00:35:22.396Z,99.90
2023-01-19T00:37:49.446Z,99.90
2023-01-19T00:40:16.688Z,99.90
2023-01-19T00:42:48.598Z,99.90
2023-01-19T00:45:21.037Z,99.90
2023-01-19T00:47:49.296Z,99.90
2023-01-19T00:50:17.078Z,99.90
2023-01-19T00:52:44.986Z,99.90
2023-01-19T00:55:13.449Z,99.90
2023-01-19T00:57:40.859Z,99.90
2023-01-19T01:00:15.216Z,99.90
2023-01-19T01:02:44.336Z,99.90
2023-01-19T01:05:12.417Z,99.90
2023-01-19T01:07:41.408Z,99.90
2023-01-19T01:10:10.500Z,99.90
2023-01-19T01:12:37.830Z,99.90
2023-01-19T01:15:10.169Z,99.90
2023-01-19T01:17:37.784Z,99.90
2023-01-19T01:20:05.534Z,99.90
2023-01-19T01:22:32.288Z,99.90
2023-01-19T01:24:59.152Z,99.90
2023-01-19T01:27:26.051Z,99.90
2023-01-19T01:29:52.810Z,99.90
2023-01-19T01:32:19.773Z,99.90
2023-01-19T01:34:46.519Z,99.90
2023-01-19T01:37:13.433Z,99.90
2023-01-19T01:39:40.321Z,99.90
2023-01-19T01:42:17.619Z,99.90
2023-01-19T01:44:52.135Z,99.90
2023-01-19T01:47:23.379Z,99.90
2023-01-19T01:50:03.625Z,99.90
2023-01-19T01:52:33.127Z,99.90
2023-01-19T01:55:01.028Z,99.90
2023-01-19T01:57:28.102Z,99.90
2023-01-19T01:59:56.828Z,99.90
2023-01-19T02:02:46.449Z,99.90
2023-01-19T02:05:17.957Z,99.90
2023-01-19T02:08:22.248Z,99.90
2023-01-19T02:11:08.139Z,99.90
2023-01-19T02:13:38.983Z,99.90
2023-01-19T02:16:10.088Z,99.90
2023-01-19T02:18:38.137Z,99.90
2023-01-19T02:21:26.148Z,99.90
2023-01-19T02:23:55.149Z,99.90
2023-01-19T02:26:25.202Z,99.90
2023-01-19T02:29:08.931Z,99.90
2023-01-19T02:31:37.367Z,99.90
2023-01-19T02:34:06.258Z,99.90
2023-01-19T02:36:44.940Z,99.90
2023-01-19T02:39:12.634Z,99.90
2023-01-19T02:41:46.593Z,99.90
2023-01-19T02:44:15.056Z,99.90
2023-01-19T02:46:41.962Z,99.90
2023-01-19T02:49:08.814Z,99.90
2023-01-19T02:51:35.880Z,99.90
2023-01-19T02:54:27.513Z,99.90
2023-01-19T02:57:18.428Z,99.90
2023-01-19T03:00:21.299Z,99.90
2023-01-19T03:03:27.184Z,99.90
2023-01-19T03:06:18.431Z,99.90
2023-01-19T03:09:01.614Z,99.90
2023-01-19T03:11:37.110Z,99.90
2023-01-19T03:14:15.756Z,99.90
2023-01-19T03:16:55.342Z,99.90
2023-01-19T03:19:27.385Z,99.90
2023-01-19T03:22:10.859Z,99.90
2023-01-19T03:24:41.776Z,99.90
2023-01-19T03:27:40.898Z,99.90
2023-01-19T03:30:16.052Z,99.90
2023-01-19T03:32:48.518Z,99.90
2023-01-19T03:35:17.389Z,99.90
2023-01-19T03:37:46.025Z,99.90
2023-01-19T03:40:14.046Z,99.90
2023-01-19T03:42:42.258Z,99.90
2023-01-19T03:45:09.377Z,99.90
2023-01-19T03:47:36.736Z,99.90
2023-01-19T03:50:08.960Z,99.90
2023-01-19T03:52:35.676Z,99.90
2023-01-19T03:55:04.780Z,99.90
2023-01-19T03:57:32.319Z,99.90
2023-01-19T03:59:59.163Z,99.90
2023-01-19T04:02:25.975Z,99.90
2023-01-19T04:04:52.969Z,99.90
2023-01-19T04:07:19.879Z,99.90
2023-01-19T04:09:46.763Z,99.90
2023-01-19T04:12:13.572Z,99.90
2023-01-19T04:14:40.496Z,99.90
2023-01-19T04:17:07.395Z,99.90
2023-01-19T04:19:34.243Z,99.90
2023-01-19T04:22:02.011Z,99.90
2023-01-19T04:24:28.951Z,99.90
2023-01-19T04:26:56.044Z,99.90
2023-01-19T04:29:24.395Z,99.90
2023-01-19T04:31:51.187Z,99.90
2023-01-19T04:34:17.914Z,99.90
2023-01-19T04:36:45.494Z,99.90
2023-01-19T04:39:12.502Z,99.90
2023-01-19T04:41:39.446Z,99.90
2023-01-19T04:44:06.474Z,99.90
2023-01-19T04:46:33.419Z,99.90
2023-01-19T04:49:00.461Z,99.90
2023-01-19T04:51:28.708Z,99.90
2023-01-19T04:53:55.592Z,99.90
2023-01-19T04:56:22.436Z,99.90
2023-01-19T04:58:49.304Z,99.90
2023-01-19T05:01:16.323Z,99.90
2023-01-19T05:03:43.257Z,99.90
2023-01-19T05:06:09.990Z,99.90
2023-01-19T05:08:36.666Z,99.90
2023-01-19T05:11:03.481Z,99.90
2023-01-19T05:13:30.226Z,99.90
2023-01-19T05:15:56.988Z,99.90
2023-01-19T05:18:24.046Z,99.90
2023-01-19T05:20:51.138Z,99.90
2023-01-19T05:23:17.995Z,99.90
2023-01-19T05:25:44.843Z,99.90
2023-01-19T05:28:11.796Z,99.90
2023-01-19T05:30:38.912Z,99.90
2023-01-19T05:33:06.009Z,99.90
2023-01-19T05:35:36.186Z,99.90
2023-01-19T05:38:03.835Z,99.90
2023-01-19T05:40:30.675Z,99.90
2023-01-19T05:43:01.357Z,99.90
2023-01-19T05:45:28.801Z,99.90
2023-01-19T05:47:56.033Z,99.90
2023-01-19T05:50:23.571Z,99.90
2023-01-19T05:52:53.286Z,99.90
2023-01-19T05:55:20.931Z,99.90
2023-01-19T05:57:47.887Z,99.90
2023-01-19T06:00:15.244Z,99.90
2023-01-19T06:02:42.159Z,99.90
2023-01-19T06:05:09.683Z,99.90
2023-01-19T06:07:36.536Z,99.90
2023-01-19T06:10:03.357Z,99.90
2023-01-19T06:12:30.051Z,99.90
2023-01-19T06:14:56.770Z,99.90
2023-01-19T06:17:23.632Z,99.90
2023-01-19T06:19:50.484Z,99.90
2023-01-19T06:22:17.221Z,99.90
2023-01-19T06:24:43.992Z,99.90
2023-01-19T06:27:11.337Z,99.90
2023-01-19T06:29:38.688Z,99.90
2023-01-19T06:32:05.953Z,99.90
2023-01-19T06:34:32.822Z,99.90
2023-01-19T06:36:59.655Z,99.90
2023-01-19T06:39:27.381Z,99.90
2023-01-19T06:41:54.207Z,99.90
2023-01-19T06:44:21.144Z,99.90
2023-01-19T06:46:49.364Z,99.90
2023-01-19T06:49:16.111Z,99.90
2023-01-19T06:51:42.989Z,99.90
2023-01-19T06:54:09.862Z,99.90
2023-01-19T06:56:36.806Z,99.90
2023-01-19T06:59:03.965Z,99.90
2023-01-19T07:01:30.912Z,99.90
2023-01-19T07:03:57.789Z,99.90
2023-01-19T07:06:24.894Z,99.90
2023-01-19T07:08:51.544Z,99.90
2023-01-19T07:11:26.879Z,99.90
2023-01-19T07:13:58.428Z,99.90
2023-01-19T07:16:25.454Z,99.90
2023-01-19T07:18:52.615Z,99.90
2023-01-19T07:21:19.465Z,99.90
2023-01-19T07:23:49.144Z,99.90
2023-01-19T07:26:18.696Z,99.90
2023-01-19T07:28:47.353Z,99.90
2023-01-19T07:31:15.774Z,99.90
2023-01-19T07:33:42.743Z,99.90
2023-01-19T07:36:10.072Z,99.90
2023-01-19T07:38:36.900Z,99.90
2023-01-19T07:41:06.110Z,99.90
2023-01-19T07:43:33.787Z,99.90
2023-01-19T07:46:03.044Z,99.90
2023-01-19T07:48:30.118Z,99.90
2023-01-19T07:51:10.414Z,99.90
2023-01-19T07:53:40.020Z,99.90
2023-01-19T07:56:07.762Z,99.90
2023-01-19T07:58:34.979Z,99.90
2023-01-19T08:01:07.149Z,99.90
2023-01-19T08:03:34.554Z,99.90
2023-01-19T08:06:02.556Z,99.90
2023-01-19T08:08:33.420Z,99.90
2023-01-19T08:11:00.246Z,99.90
2023-01-19T08:13:27.966Z,99.90
2023-01-19T08:15:55.028Z,99.90
2023-01-19T08:18:22.275Z,99.90
2023-01-19T08:20:49.290Z,99.90
2023-01-19T08:23:17.885Z,99.90
2023-01-19T08:25:45.312Z,99.90
2023-01-19T08:28:14.517Z,99.90
2023-01-19T08:30:43.729Z,99.90
2023-01-19T08:33:12.602Z,99.90
2023-01-19T08:35:47.320Z,99.90
2023-01-19T08:38:14.247Z,99.90
2023-01-19T08:40:42.003Z,99.90
2023-01-19T08:43:14.262Z,99.90
2023-01-19T08:45:51.891Z,99.90
2023-01-19T08:48:22.368Z,99.90
2023-01-19T08:50:50.535Z,99.90
2023-01-19T08:53:17.857Z,99.90
2023-01-19T08:55:44.607Z,99.90
2023-01-19T08:58:11.478Z,99.90
2023-01-19T09:00:39.395Z,99.90
2023-01-19T09:03:08.455Z,99.90
2023-01-19T09:05:38.759Z,99.90
2023-01-19T09:08:09.710Z,99.90
2023-01-19T09:10:37.987Z,99.90
2023-01-19T09:13:11.094Z,99.90
2023-01-19T09:15:39.384Z,99.90
2023-01-19T09:18:10.152Z,99.90
2023-01-19T09:20:39.010Z,99.90
2023-01-19T09:23:06.459Z,99.90
2023-01-19T09:25:33.215Z,99.90
2023-01-19T09:28:00.961Z,99.90
2023-01-19T09:30:28.096Z,99.90
2023-01-19T09:32:54.896Z,99.90
2023-01-19T09:35:21.692Z,99.90
2023-01-19T09:37:48.690Z,99.90
2023-01-19T09:40:16.364Z,99.90
2023-01-19T09:42:47.287Z,99.90
2023-01-19T09:45:36.290Z,99.90
2023-01-19T09:48:11.873Z,99.90
2023-01-19T09:50:46.589Z,99.90
2023-01-19T09:53:27.693Z,99.90
2023-01-19T09:55:54.768Z,99.90
2023-01-19T09:58:22.595Z,99.90
2023-01-19T10:01:02.521Z,99.90
2023-01-19T10:03:30.467Z,99.90
2023-01-19T10:06:04.077Z,99.90
2023-01-19T10:08:46.942Z,99.90
2023-01-19T10:11:26.296Z,99.90
2023-01-19T10:13:54.352Z,99.90
2023-01-19T10:16:53.459Z,99.90
2023-01-19T10:19:46.622Z,99.90
2023-01-19T10:22:25.090Z,99.90
2023-01-19T10:25:05.937Z,99.90
2023-01-19T10:27:35.299Z,99.90
2023-01-19T10:30:02.441Z,99.90
2023-01-19T10:32:35.847Z,99.90
2023-01-19T10:35:14.320Z,99.90
2023-01-19T10:37:41.959Z,99.90
2023-01-19T10:40:11.731Z,99.90
2023-01-19T10:42:41.269Z,99.90
2023-01-19T10:45:40.366Z,99.90
2023-01-19T10:48:07.894Z,99.90
2023-01-19T10:50:39.846Z,99.90
2023-01-19T10:53:23.790Z,99.90
2023-01-19T10:56:11.864Z,99.90
2023-01-19T10:58:40.257Z,99.90
2023-01-19T11:01:18.160Z,99.90
2023-01-19T11:03:47.907Z,99.90
2023-01-19T11:06:17.719Z,99.90
2023-01-19T11:08:47.267Z,99.90
2023-01-19T11:11:15.918Z,99.90
2023-01-19T11:13:44.037Z,99.90
2023-01-19T11:16:27.756Z,99.90
2023-01-19T11:18:56.628Z,99.90
2023-01-19T11:21:31.947Z,99.90
2023-01-19T11:24:05.432Z,99.90
2023-01-19T11:26:43.253Z,99.90
2023-01-19T11:29:19.856Z,99.90
2023-01-19T11:31:47.304Z,99.90
2023-01-19T11:34:33.864Z,99.90
2023-01-19T11:37:28.523Z,99.90
2023-01-19T11:40:00.187Z,99.90
2023-01-19T11:42:29.994Z,99.90
2023-01-19T11:45:07.407Z,99.90
2023-01-19T11:47:44.398Z,99.90
2023-01-19T11:50:42.576Z,99.90
2023-01-19T11:53:29.350Z,99.90
2023-01-19T11:56:04.827Z,93.10
2023-01-19T11:58:39.340Z,70.60
2023-01-19T12:01:29.809Z,72.50
2023-01-19T12:04:28.963Z,72.00
2023-01-19T12:06:58.130Z,84.70
2023-01-19T12:09:36.918Z,94.00
2023-01-19T12:12:07.705Z,73.30
2023-01-19T12:14:43.865Z,71.40
2023-01-19T12:17:27.680Z,68.60
2023-01-19T12:20:23.845Z,63.90
2023-01-19T12:23:11.715Z,63.10
2023-01-19T12:25:53.955Z,73.70
2023-01-19T12:28:28.642Z,65.90
2023-01-19T12:30:57.029Z,91.60
2023-01-19T12:33:37.652Z,69.10
2023-01-19T12:36:16.574Z,67.50
2023-01-19T12:38:48.789Z,69.20
2023-01-19T12:41:18.602Z,59.60
2023-01-19T12:43:46.087Z,61.70
2023-01-19T12:46:32.058Z,64.60
2023-01-19T12:49:23.321Z,59.40
2023-01-19T12:51:52.993Z,59.20
2023-01-19T12:54:59.868Z,58.50
2023-01-19T12:57:47.082Z,58.50
2023-01-19T13:00:22.895Z,58.00
2023-01-19T13:02:54.486Z,57.90
2023-01-19T13:05:44.657Z,55.80
2023-01-19T13:08:14.964Z,58.20
2023-01-19T13:11:13.126Z,56.70
2023-01-19T13:13:44.688Z,58.20
2023-01-19T13:16:25.449Z,59.90
2023-01-19T13:18:57.144Z,61.50
2023-01-19T13:21:30.424Z,63.70
2023-01-19T13:23:59.309Z,61.40
2023-01-19T13:26:30.751Z,60.20
2023-01-19T13:29:06.303Z,64.10
2023-01-19T13:31:39.560Z,63.50
2023-01-19T13:34:13.544Z,64.30
2023-01-19T13:36:45.307Z,60.10
2023-01-19T13:39:18.669Z,61.30
2023-01-19T13:41:47.074Z,62.80
2023-01-19T13:44:29.957Z,59.00
2023-01-19T13:46:59.540Z,59.20
2023-01-19T13:49:36.873Z,60.60
2023-01-19T13:52:19.244Z,60.00
2023-01-19T13:54:53.343Z,62.10
2023-01-19T13:57:26.053Z,60.20
2023-01-19T14:00:05.054Z,62.50
2023-01-19T14:02:59.240Z,82.60
2023-01-19T14:05:28.908Z,70.50
2023-01-19T14:08:13.350Z,91.70
2023-01-19T14:10:47.377Z,93.40
2023-01-19T14:13:22.940Z,94.60
2023-01-19T14:15:51.738Z,93.00
2023-01-19T14:18:21.538Z,96.50
2023-01-19T14:21:01.202Z,98.00
2023-01-19T14:24:06.876Z,99.90
2023-01-19T14:26:51.280Z,99.90
2023-01-19T14:29:37.980Z,95.80
2023-01-19T14:32:10.125Z,99.90
2023-01-19T14:34:41.640Z,99.90
2023-01-19T14:37:23.082Z,99.90
2023-01-19T14:39:54.480Z,99.90
2023-01-19T14:42:43.980Z,99.90
2023-01-19T14:45:38.028Z,99.90
2023-01-19T14:48:18.048Z,99.50
2023-01-19T14:51:01.556Z,99.90
2023-01-19T14:53:34.357Z,93.20
2023-01-19T14:56:04.849Z,99.90
2023-01-19T14:58:34.026Z,99.90
2023-01-19T15:01:01.877Z,96.80
2023-01-19T15:03:44.372Z,99.90
2023-01-19T15:06:17.626Z,92.80
2023-01-19T15:08:45.856Z,99.90
2023-01-19T15:11:26.534Z,99.90
2023-01-19T15:13:55.168Z,99.90
2023-01-19T15:16:26.105Z,99.90
2023-01-19T15:18:53.041Z,99.90
2023-01-19T15:21:23.482Z,99.90
2023-01-19T15:23:54.413Z,99.90
2023-01-19T15:26:24.716Z,99.90
2023-01-19T15:28:51.789Z,99.90
2023-01-19T15:31:21.951Z,99.90
2023-01-19T15:33:49.025Z,99.90
2023-01-19T15:36:18.591Z,99.90
2023-01-19T15:38:45.956Z,99.90
2023-01-19T15:41:23.505Z,99.90
2023-01-19T15:43:50.861Z,99.90
2023-01-19T15:46:20.796Z,99.90
2023-01-19T15:48:48.370Z,99.90
2023-01-19T15:51:17.766Z,99.90
2023-01-19T15:53:45.120Z,99.90
2023-01-19T15:56:17.182Z,99.90
2023-01-19T15:58:44.309Z,99.90
2023-01-19T16:01:17.119Z,99.90
2023-01-19T16:03:44.715Z,99.90
2023-01-19T16:06:12.962Z,99.90
2023-01-19T16:08:40.290Z,99.90
2023-01-19T16:11:14.816Z,99.90
2023-01-19T16:13:46.158Z,99.90
2023-01-19T16:16:19.000Z,99.90
2023-01-19T16:18:45.854Z,99.90
2023-01-19T16:21:12.759Z,99.90
2023-01-19T16:23:39.917Z,99.90
2023-01-19T16:26:22.262Z,99.90
2023-01-19T16:28:49.011Z,99.90
2023-01-19T16:31:16.482Z,99.90
2023-01-19T16:33:45.100Z,99.90
2023-01-19T16:36:41.787Z,99.90
2023-01-19T16:39:13.652Z,99.90
2023-01-19T16:41:40.761Z,99.90
2023-01-19T16:44:09.737Z,99.90
2023-01-19T16:46:40.956Z,99.90
2023-01-19T16:49:15.727Z,99.90
2023-01-19T16:51:44.648Z,99.90
2023-01-19T16:54:16.150Z,99.90
2023-01-19T16:56:43.219Z,99.90
2023-01-19T16:59:12.687Z,99.90
2023-01-19T17:01:40.091Z,99.90
2023-01-19T17:04:07.192Z,99.90
2023-01-19T17:06:49.909Z,99.90
2023-01-19T17:09:17.967Z,99.90
2023-01-19T17:11:45.667Z,99.90
2023-01-19T17:14:15.746Z,99.90
2023-01-19T17:16:43.730Z,99.90
2023-01-19T17:19:15.835Z,99.90
2023-01-19T17:21:46.208Z,99.90
2023-01-19T17:24:13.361Z,99.90
2023-01-19T17:26:40.781Z,99.90
2023-01-19T17:29:09.465Z,99.90
2023-01-19T17:31:36.781Z,99.90
2023-01-19T17:34:03.677Z,99.90
2023-01-19T17:36:32.172Z,99.90
2023-01-19T17:39:04.082Z,99.90
2023-01-19T17:41:32.805Z,99.90
2023-01-19T17:44:00.658Z,99.90
2023-01-19T17:46:29.170Z,99.90
2023-01-19T17:49:01.656Z,99.90
2023-01-19T17:51:30.109Z,99.90
2023-01-19T17:53:57.793Z,99.90
2023-01-19T17:56:29.533Z,99.90
2023-01-19T17:58:57.955Z,99.90
2023-01-19T18:01:27.574Z,99.90
2023-01-19T18:03:55.405Z,99.90
2023-01-19T18:06:24.282Z,99.90
2023-01-19T18:08:51.568Z,99.90
2023-01-19T18:11:20.788Z,99.90
2023-01-19T18:13:49.300Z,99.90
2023-01-19T18:16:27.855Z,99.90
2023-01-19T18:18:56.330Z,99.90
2023-01-19T18:21:24.895Z,99.90
2023-01-19T18:23:51.635Z,99.90
2023-01-19T18:26:22.576Z,99.90
2023-01-19T18:28:49.868Z,99.90
2023-01-19T18:31:18.793Z,99.90
2023-01-19T18:33:46.733Z,99.90
2023-01-19T18:36:14.423Z,99.90
2023-01-19T18:38:41.859Z,99.90
2023-01-19T18:41:11.734Z,99.90
2023-01-19T18:43:38.797Z,99.90
2023-01-19T18:46:06.373Z,99.90
2023-01-19T18:48:33.466Z,99.90
2023-01-19T18:51:03.552Z,99.90
2023-01-19T18:53:31.747Z,99.90
2023-01-19T18:56:01.812Z,99.90
2023-01-19T18:58:29.381Z,99.90
2023-01-19T19:00:56.831Z,99.90
2023-01-19T19:03:23.953Z,99.90
2023-01-19T19:05:50.906Z,99.90
2023-01-19T19:08:17.971Z,99.90
2023-01-19T19:10:45.153Z,99.90
2023-01-19T19:13:13.661Z,99.90
2023-01-19T19:15:40.502Z,99.90
2023-01-19T19:18:09.092Z,99.90
2023-01-19T19:20:38.951Z,99.90
2023-01-19T19:23:05.763Z,99.90
2023-01-19T19:25:33.144Z,99.90
2023-01-19T19:28:00.114Z,99.90
2023-01-19T19:30:26.910Z,99.90
2023-01-19T19:32:54.487Z,99.90
2023-01-19T19:35:21.601Z,99.90
2023-01-19T19:37:49.098Z,99.90
2023-01-19T19:40:16.396Z,99.90
2023-01-19T19:42:44.525Z,99.90
2023-01-19T19:45:11.912Z,99.90
2023-01-19T19:47:39.015Z,99.90
2023-01-19T19:50:06.093Z,99.90
2023-01-19T19:52:41.025Z,99.90
2023-01-19T19:55:09.563Z,99.90
2023-01-19T19:57:36.435Z,99.90
2023-01-19T20:00:07.216Z,99.90
2023-01-19T20:02:37.222Z,99.90
2023-01-19T20:05:04.998Z,99.90
2023-01-19T20:07:32.726Z,99.90
2023-01-19T20:09:59.450Z,99.90
2023-01-19T20:12:26.181Z,99.90
2023-01-19T20:14:52.927Z,99.90
2023-01-19T20:17:20.684Z,99.90
2023-01-19T20:19:48.927Z,99.90
2023-01-19T20:22:16.153Z,99.90
2023-01-19T20:24:45.699Z,99.90
2023-01-19T20:27:12.809Z,99.90
2023-01-19T20:29:39.604Z,99.90
2023-01-19T20:32:06.666Z,99.90
2023-01-19T20:34:33.917Z,99.90
2023-01-19T20:37:01.797Z,99.90
2023-01-19T20:39:30.249Z,99.90
2023-01-19T20:41:57.146Z,99.90
2023-01-19T20:44:25.467Z,99.90
2023-01-19T20:46:53.597Z,99.90
2023-01-19T20:49:20.786Z,99.90
2023-01-19T20:51:48.443Z,99.90
2023-01-19T20:54:17.594Z,99.90
2023-01-19T20:56:44.708Z,99.90
2023-01-19T20:59:12.703Z,99.90
2023-01-19T21:01:40.834Z,99.90
2023-01-19T21:04:07.971Z,99.90
2023-01-19T21:06:34.720Z,99.90
2023-01-19T21:09:01.607Z,99.90
2023-01-19T21:11:28.611Z,99.90
2023-01-19T21:13:56.494Z,99.90
2023-01-19T21:16:26.493Z,99.90
2023-01-19T21:18:53.977Z,99.90
2023-01-19T21:21:30.490Z,99.90
2023-01-19T21:24:01.771Z,99.90
2023-01-19T21:26:33.496Z,99.90
2023-01-19T21:29:01.675Z,99.90
2023-01-19T21:31:28.954Z,99.90
2023-01-19T21:33:56.883Z,99.90
2023-01-19T21:36:24.868Z,99.90
2023-01-19T21:38:52.579Z,99.90
2023-01-19T21:41:20.548Z,99.90
2023-01-19T21:43:47.886Z,99.90
2023-01-19T21:46:19.578Z,99.90
2023-01-19T21:48:47.098Z,99.90
2023-01-19T21:51:15.048Z,99.90
2023-01-19T21:53:41.994Z,99.90
2023-01-19T21:56:09.820Z,99.90
2023-01-19T21:58:36.567Z,99.90
2023-01-19T22:01:08.647Z,99.90
2023-01-19T22:03:35.374Z,99.90
2023-01-19T22:06:13.437Z,99.90
2023-01-19T22:08:41.337Z,99.90
2023-01-19T22:11:10.737Z,99.90
2023-01-19T22:13:40.866Z,99.90
2023-01-19T22:16:16.578Z,99.90
2023-01-19T22:18:45.783Z,99.90
2023-01-19T22:21:15.882Z,99.90
2023-01-19T22:23:43.166Z,99.90
2023-01-19T22:26:11.338Z,99.90
2023-01-19T22:28:38.538Z,99.90
2023-01-19T22:31:09.858Z,99.90
2023-01-19T22:33:36.908Z,99.90
2023-01-19T22:36:25.358Z,99.90
2023-01-19T22:38:57.422Z,99.90
2023-01-19T22:41:26.867Z,99.90
2023-01-19T22:43:56.357Z,99.90
2023-01-19T22:46:28.920Z,99.90
2023-01-19T22:48:56.553Z,99.90
2023-01-19T22:51:24.242Z,99.90
2023-01-19T22:53:51.895Z,99.90
2023-01-19T22:56:21.037Z,99.90
2023-01-19T22:58:48.403Z,99.90
2023-01-19T23:01:20.777Z,99.90
2023-01-19T23:03:47.572Z,99.90
2023-01-19T23:06:20.252Z,99.90
2023-01-19T23:08:46.977Z,99.90
2023-01-19T23:11:20.267Z,99.90
2023-01-19T23:13:47.036Z,99.90
2023-01-19T23:16:14.433Z,99.90
2023-01-19T23:18:42.121Z,99.90
2023-01-19T23:21:17.923Z,99.90
2023-01-19T23:23:45.750Z,99.90
2023-01-19T23:26:18.371Z,99.90
2023-01-19T23:28:46.757Z,99.90
2023-01-19T23:31:17.553Z,99.90
2023-01-19T23:33:44.766Z,99.90
2023-01-19T23:36:12.360Z,99.90
2023-01-19T23:38:40.120Z,99.90
2023-01-19T23:41:07.611Z,99.90
2023-01-19T23:43:34.857Z,99.90
2023-01-19T23:46:06.238Z,99.90
2023-01-19T23:48:34.543Z,99.90
2023-01-19T23:51:13.777Z,99.90
2023-01-19T23:53:40.847Z,99.90
2023-01-19T23:56:14.617Z,99.90
2023-01-19T23:58:41.792Z,99.90
